Time;durP1;ratioP1;P1;durP2;ratioP2;P2;SDS_P1;SDS_P2;PMS_P1;PMS_P2;Temp;Humidity;BMP_temperature;BMP_pressure;BME280_temperature;BME280_humidity;BME280_pressure;Samples;Min_cycle;Max_cycle;Signal;HPM_P1;HPM_P2
2023/08/16 00:00:00;;;;;;;11.25;7.53;;;;;;;20.45;71.54;96423.72;5014242;28;20050;-68
2023/08/16 00:02:28;;;;;;;9.20;8.07;;;;;;;20.38;71.86;96419.84;5013815;28;20129;-68
2023/08/16 00:04:55;;;;;;;11.35;7.40;;;;;;;20.36;71.63;96412.97;5014149;28;20155;-68
2023/08/16 00:07:23;;;;;;;11.13;8.00;;;;;;;20.31;71.86;96416.84;5014168;28;20095;-68
2023/08/16 00:09:52;;;;;;;8.77;7.88;;;;;;;20.30;71.54;96412.50;5013960;28;20100;-68
2023/08/16 00:12:19;;;;;;;9.63;7.93;;;;;;;20.27;71.59;96411.91;5014079;28;20046;-68
2023/08/16 00:14:48;;;;;;;12.68;8.05;;;;;;;20.20;72.13;96415.03;5014028;28;20042;-68
2023/08/16 00:17:16;;;;;;;9.75;7.63;;;;;;;20.15;71.92;96411.06;5013844;28;20056;-68
2023/08/16 00:19:44;;;;;;;9.80;7.68;;;;;;;20.12;72.03;96414.81;5013868;28;20100;-68
2023/08/16 00:22:12;;;;;;;10.60;8.50;;;;;;;20.07;72.28;96414.31;5013885;28;20116;-68
2023/08/16 00:24:40;;;;;;;9.85;8.00;;;;;;;20.02;72.27;96409.38;5013539;28;20474;-68
2023/08/16 00:27:08;;;;;;;8.75;7.15;;;;;;;20.01;72.29;96401.50;5013689;28;20050;-68
2023/08/16 00:29:36;;;;;;;10.55;7.72;;;;;;;19.93;72.52;96405.59;5013869;28;20474;-68
2023/08/16 00:32:07;;;;;;;10.07;7.85;;;;;;;19.91;72.72;96407.53;5013680;28;20050;-68
2023/08/16 00:34:35;;;;;;;9.05;7.78;;;;;;;19.81;73.00;96394.13;5013748;28;20056;-68
2023/08/16 00:37:03;;;;;;;10.52;7.93;;;;;;;19.75;73.28;96405.22;5013566;28;20069;-68
2023/08/16 00:39:31;;;;;;;10.93;7.82;;;;;;;19.72;73.27;96409.94;5013627;28;20188;-68
2023/08/16 00:42:00;;;;;;;12.95;8.15;;;;;;;19.65;73.87;96409.53;5013534;28;20488;-68
2023/08/16 00:44:28;;;;;;;12.18;7.68;;;;;;;19.60;73.64;96411.72;5013595;28;20053;-68
2023/08/16 00:46:56;;;;;;;9.48;8.05;;;;;;;19.52;74.39;96407.00;5013594;28;20096;-68
2023/08/16 00:49:25;;;;;;;11.00;8.32;;;;;;;19.38;74.61;96416.84;5013492;28;20045;-68
2023/08/16 00:51:53;;;;;;;10.52;7.95;;;;;;;19.37;75.12;96417.81;5013414;28;20042;-68
2023/08/16 00:54:21;;;;;;;10.00;7.72;;;;;;;19.35;75.39;96414.44;5013451;28;20050;-68
2023/08/16 00:56:49;;;;;;;14.98;8.52;;;;;;;19.37;74.99;96424.91;5013233;28;20499;-68
2023/08/16 00:59:16;;;;;;;8.77;7.78;;;;;;;19.29;75.40;96423.69;5013329;28;20056;-68
2023/08/16 01:01:45;;;;;;;10.00;8.07;;;;;;;19.29;75.12;96425.50;5013305;28;20046;-68
2023/08/16 01:04:13;;;;;;;13.05;8.48;;;;;;;19.31;75.44;96427.09;5013372;28;20108;-68
2023/08/16 01:06:41;;;;;;;12.70;8.43;;;;;;;19.28;75.47;96424.66;5013274;28;20050;-68
2023/08/16 01:09:08;;;;;;;12.98;8.10;;;;;;;19.34;75.42;96423.34;5013283;28;20054;-68
2023/08/16 01:11:39;;;;;;;8.20;7.28;;;;;;;19.34;75.77;96423.34;5013257;28;20132;-68
2023/08/16 01:14:11;;;;;;;11.60;8.23;;;;;;;19.31;75.92;96436.84;5013961;28;20054;-68
2023/08/16 01:16:40;;;;;;;13.88;8.88;;;;;;;19.35;75.90;96435.66;5017304;28;20049;-68
2023/08/16 01:19:11;;;;;;;12.80;8.48;;;;;;;19.39;75.37;96434.44;5017185;28;20096;-68
2023/08/16 01:21:44;;;;;;;9.13;8.05;;;;;;;19.41;75.21;96440.50;5017277;28;20050;-68
2023/08/16 01:24:23;;;;;;;9.55;8.05;;;;;;;19.41;75.39;96431.69;5017236;28;20052;-68
2023/08/16 01:26:53;;;;;;;8.57;7.60;;;;;;;19.40;75.16;96437.94;5016882;28;20065;-68
2023/08/16 01:29:22;;;;;;;11.10;8.60;;;;;;;19.29;75.91;96438.75;5017051;28;20054;-68
2023/08/16 01:31:49;;;;;;;12.43;8.32;;;;;;;19.27;76.24;96432.75;5017061;28;20081;-68
2023/08/16 01:34:17;;;;;;;9.10;7.93;;;;;;;19.27;76.38;96432.75;5016965;28;20045;-68
2023/08/16 01:36:44;;;;;;;10.88;8.38;;;;;;;19.33;76.41;96421.69;5017079;28;20046;-68
2023/08/16 01:39:11;;;;;;;10.68;8.27;;;;;;;19.31;76.19;96423.59;5016886;28;20562;-68
2023/08/16 01:41:42;;;;;;;10.05;8.13;;;;;;;19.31;75.99;96424.44;5016954;28;20048;-68
2023/08/16 01:44:13;;;;;;;10.35;8.13;;;;;;;19.41;76.58;96436.97;5016936;28;20046;-68
2023/08/16 01:46:42;;;;;;;12.18;8.35;;;;;;;19.43;75.96;96429.78;5016735;28;20104;-69
2023/08/16 01:49:11;;;;;;;19.27;8.75;;;;;;;19.49;76.75;96429.31;5016643;28;20455;-68
2023/08/16 01:51:39;;;;;;;14.05;7.95;;;;;;;19.50;76.23;96425.69;5016675;28;20494;-69
2023/08/16 01:54:07;;;;;;;13.27;7.85;;;;;;;19.52;76.29;96423.78;5016622;28;20068;-69
2023/08/16 01:56:33;;;;;;;9.40;7.90;;;;;;;19.58;76.07;96419.81;5016589;28;20053;-68
2023/08/16 01:59:01;;;;;;;11.43;7.85;;;;;;;19.59;76.00;96418.00;5016324;28;20184;-69
2023/08/16 02:01:29;;;;;;;10.13;7.63;;;;;;;19.61;75.98;96416.91;5016470;28;20046;-68
2023/08/16 02:03:56;;;;;;;8.30;7.50;;;;;;;19.62;75.20;96415.13;5016484;28;20057;-69
2023/08/16 02:06:23;;;;;;;8.77;7.88;;;;;;;19.60;75.33;96420.53;5016396;28;20119;-68
2023/08/16 02:08:51;;;;;;;10.40;8.23;;;;;;;19.61;75.13;96418.72;5016254;28;20460;-68
2023/08/16 02:11:20;;;;;;;11.30;7.55;;;;;;;19.61;75.46;96410.75;5016300;28;20056;-68
2023/08/16 02:13:47;;;;;;;10.48;8.15;;;;;;;19.61;75.44;96405.44;5016328;28;20053;-68
2023/08/16 02:16:14;;;;;;;12.23;8.60;;;;;;;19.57;75.48;96405.69;5016191;28;20444;-68
2023/08/16 02:18:42;;;;;;;10.88;9.15;;;;;;;19.55;75.99;96410.28;5016074;28;20181;-68
2023/08/16 02:21:09;;;;;;;8.55;7.60;;;;;;;19.45;76.24;96404.81;5016053;28;20407;-68
2023/08/16 02:23:37;;;;;;;12.90;8.98;;;;;;;19.34;76.62;96396.84;5016091;28;20504;-68
2023/08/16 02:26:03;;;;;;;14.60;8.82;;;;;;;19.44;76.91;96397.81;5015472;28;20526;-68
2023/08/16 02:28:31;;;;;;;9.15;8.18;;;;;;;19.46;76.64;96405.66;5015953;28;20077;-68
2023/08/16 02:31:04;;;;;;;10.25;8.75;;;;;;;19.40;76.32;96396.38;5015953;28;20081;-68
2023/08/16 02:33:31;;;;;;;10.25;8.10;;;;;;;19.36;76.07;96396.72;5015925;28;20085;-68
2023/08/16 02:36:01;;;;;;;9.48;8.23;;;;;;;19.35;76.25;96395.03;5015867;28;20499;-68
2023/08/16 02:38:28;;;;;;;9.13;8.23;;;;;;;19.33;76.78;96400.47;5015703;28;20442;-68
2023/08/16 02:40:55;;;;;;;11.18;8.88;;;;;;;19.22;77.43;96397.75;5015843;28;20073;-68
2023/08/16 02:43:22;;;;;;;9.73;7.68;;;;;;;19.23;77.03;96400.28;5015891;28;20050;-68
2023/08/16 02:45:50;;;;;;;11.35;8.48;;;;;;;19.25;77.01;96395.75;5015894;28;20058;-68
2023/08/16 02:48:17;;;;;;;11.57;8.55;;;;;;;19.25;76.73;96394.88;5015660;28;20054;-68
2023/08/16 02:50:44;;;;;;;11.05;9.23;;;;;;;19.19;77.40;96391.75;5015514;28;20053;-69
2023/08/16 02:53:12;;;;;;;10.05;8.85;;;;;;;19.08;77.54;96399.66;5015515;28;20085;-69
2023/08/16 02:55:40;;;;;;;10.23;8.20;;;;;;;19.02;78.22;96397.44;5015577;28;20454;-68
2023/08/16 02:58:08;;;;;;;10.65;8.50;;;;;;;18.91;78.56;96391.13;5015382;28;20500;-68
2023/08/16 03:00:35;;;;;;;10.15;9.07;;;;;;;18.90;78.92;96394.72;5015362;28;20050;-69
2023/08/16 03:03:03;;;;;;;13.98;9.18;;;;;;;18.79;79.73;96395.53;5015328;28;20046;-68
2023/08/16 03:05:31;;;;;;;10.80;8.90;;;;;;;18.76;79.80;96392.28;5015266;28;20076;-68
2023/08/16 03:07:58;;;;;;;12.27;9.07;;;;;;;18.64;80.64;96386.94;5015214;28;20054;-68
2023/08/16 03:10:27;;;;;;;9.90;8.57;;;;;;;18.71;80.14;96386.44;5015285;28;20050;-68
2023/08/16 03:12:55;;;;;;;11.88;8.57;;;;;;;18.73;79.79;96377.47;5015096;28;20400;-68
2023/08/16 03:15:23;;;;;;;13.23;9.65;;;;;;;18.75;79.71;96387.94;5015181;28;20046;-68
2023/08/16 03:17:50;;;;;;;15.18;8.60;;;;;;;18.76;80.15;96389.63;5014895;28;20137;-68
2023/08/16 03:20:18;;;;;;;12.27;9.38;;;;;;;18.79;79.84;96398.16;5014841;28;20479;-68
2023/08/16 03:22:46;;;;;;;9.93;8.85;;;;;;;18.81;79.55;96398.06;5014715;28;20508;-68
2023/08/16 03:25:13;;;;;;;9.15;8.32;;;;;;;18.79;79.57;96400.81;5014709;28;20046;-68
2023/08/16 03:27:42;;;;;;;11.48;8.65;;;;;;;18.81;79.18;96398.06;5014939;28;20089;-68
2023/08/16 03:30:11;;;;;;;10.38;8.52;;;;;;;18.81;79.12;96400.72;5014742;28;20092;-68
2023/08/16 03:32:38;;;;;;;11.32;8.50;;;;;;;18.81;79.06;96403.34;5014777;28;20125;-68
2023/08/16 03:35:06;;;;;;;9.35;8.20;;;;;;;18.80;79.15;96399.88;5014833;28;20408;-68
2023/08/16 03:37:34;;;;;;;9.95;8.50;;;;;;;18.82;78.75;96402.41;5014085;28;20041;-68
2023/08/16 03:40:01;;;;;;;12.35;8.35;;;;;;;18.78;78.81;96398.31;5014476;28;20093;-68
2023/08/16 03:42:28;;;;;;;10.07;9.07;;;;;;;18.83;78.50;96398.81;5014656;28;20058;-68
2023/08/16 03:44:58;;;;;;;11.68;9.00;;;;;;;18.82;78.38;96402.41;5014694;28;20132;-68
2023/08/16 03:47:25;;;;;;;11.63;8.68;;;;;;;18.78;78.61;96399.13;5014584;28;20046;-68
2023/08/16 03:49:52;;;;;;;10.93;9.45;;;;;;;18.77;78.51;96404.53;5014485;28;20041;-68
2023/08/16 03:52:20;;;;;;;10.38;8.75;;;;;;;18.77;78.60;96405.41;5014350;28;20046;-68
2023/08/16 03:54:47;;;;;;;11.13;9.18;;;;;;;18.79;78.69;96408.75;5014363;28;20046;-69
2023/08/16 03:57:15;;;;;;;12.15;8.73;;;;;;;18.85;78.99;96411.94;5014254;28;20089;-68
2023/08/16 03:59:42;;;;;;;12.98;8.85;;;;;;;18.94;78.47;96413.91;5014190;28;20076;-68
2023/08/16 04:02:11;;;;;;;12.85;8.85;;;;;;;19.00;78.13;96423.22;5014165;28;20495;-69
2023/08/16 04:04:39;;;;;;;13.98;8.48;;;;;;;19.01;77.92;96423.09;5014133;28;20125;-68
2023/08/16 04:07:06;;;;;;;13.32;8.23;;;;;;;19.04;77.66;96416.72;5014079;28;20053;-69
2023/08/16 04:09:34;;;;;;;12.38;8.43;;;;;;;19.17;77.82;96421.97;5014105;28;20050;-68
2023/08/16 04:12:01;;;;;;;9.65;7.95;;;;;;;19.40;76.82;96427.34;5014051;28;20597;-69
2023/08/16 04:14:28;;;;;;;12.15;8.45;;;;;;;19.63;76.29;96417.63;5014016;28;20045;-68
2023/08/16 04:16:56;;;;;;;8.45;7.57;;;;;;;19.79;75.27;96429.72;5014074;28;20045;-69
2023/08/16 04:19:25;;;;;;;10.15;7.97;;;;;;;19.90;74.20;96423.59;5013873;28;20049;-68
2023/08/16 04:21:52;;;;;;;9.60;8.20;;;;;;;20.02;74.09;96424.47;5013882;28;20138;-68
2023/08/16 04:24:20;;;;;;;10.82;7.70;;;;;;;20.08;73.91;96431.94;5013810;28;20571;-68
2023/08/16 04:26:48;;;;;;;10.15;7.20;;;;;;;20.13;73.50;96435.06;5013625;28;20046;-69
2023/08/16 04:29:16;;;;;;;12.32;8.18;;;;;;;20.18;73.92;96440.03;5013881;28;20420;-69
2023/08/16 04:31:44;;;;;;;10.52;7.38;;;;;;;20.19;73.92;96439.91;5013697;28;20081;-69
2023/08/16 04:34:11;;;;;;;9.10;8.02;;;;;;;20.21;74.59;96442.44;5013662;28;20514;-69
2023/08/16 04:36:40;;;;;;;11.48;7.55;;;;;;;20.24;74.91;96444.84;5013933;28;20093;-69
2023/08/16 04:39:08;;;;;;;10.57;7.80;;;;;;;20.31;75.61;96443.41;5013588;28;20050;-69
2023/08/16 04:41:36;;;;;;;11.05;8.98;;;;;;;20.32;75.98;96441.59;5013525;28;20052;-68
2023/08/16 04:44:03;;;;;;;14.45;7.88;;;;;;;20.37;76.89;96444.72;5013475;28;20626;-69
2023/08/16 04:46:31;;;;;;;9.43;8.43;;;;;;;20.39;77.53;96449.91;5013524;28;20455;-69
2023/08/16 04:48:59;;;;;;;8.63;7.82;;;;;;;20.43;77.09;96444.22;5013462;28;20132;-69
2023/08/16 04:51:28;;;;;;;9.10;7.93;;;;;;;20.46;76.97;96453.75;5013398;28;20084;-69
2023/08/16 04:53:57;;;;;;;9.05;8.15;;;;;;;20.53;77.25;96444.31;5013395;28;20100;-69
2023/08/16 04:56:26;;;;;;;13.98;9.35;;;;;;;20.61;78.88;96448.16;5013390;28;20092;-69
2023/08/16 04:58:54;;;;;;;12.02;8.32;;;;;;;20.67;78.32;96442.38;5013214;28;20057;-69
2023/08/16 05:01:22;;;;;;;11.18;8.35;;;;;;;20.71;78.06;96443.84;5013343;28;20385;-68
2023/08/16 05:03:52;;;;;;;9.65;7.97;;;;;;;20.75;77.20;96445.28;5013252;28;20046;-69
2023/08/16 05:06:20;;;;;;;10.82;8.60;;;;;;;20.77;76.74;96438.00;5013337;28;20049;-69
2023/08/16 05:08:48;;;;;;;10.40;8.48;;;;;;;20.89;77.70;96441.47;5013229;28;20499;-69
2023/08/16 05:11:17;;;;;;;9.77;7.65;;;;;;;20.95;76.91;96438.34;5013216;28;20065;-68
2023/08/16 05:13:45;;;;;;;12.05;8.85;;;;;;;21.04;77.92;96436.72;5013217;28;20459;-69
2023/08/16 05:16:13;;;;;;;10.63;8.60;;;;;;;21.14;78.28;96444.81;5013082;28;20141;-68
2023/08/16 05:18:40;;;;;;;9.30;8.30;;;;;;;21.22;78.74;96446.81;5013126;28;20057;-69
2023/08/16 05:21:08;;;;;;;15.55;9.35;;;;;;;21.30;78.92;96451.50;5013145;28;20046;-69
2023/08/16 05:23:36;;;;;;;12.23;7.82;;;;;;;21.33;74.36;96448.59;5013274;28;20054;-69
2023/08/16 05:26:04;;;;;;;13.75;8.98;;;;;;;21.40;75.30;96444.44;5012932;28;20080;-69
2023/08/16 05:28:33;;;;;;;12.90;8.70;;;;;;;21.51;78.18;96443.53;5013101;28;20085;-69
2023/08/16 05:31:08;;;;;;;9.38;8.27;;;;;;;21.61;78.35;96454.25;5012987;28;20377;-69
2023/08/16 05:33:35;;;;;;;9.35;8.10;;;;;;;21.64;78.13;96448.66;5013135;28;20048;-69
2023/08/16 05:36:04;;;;;;;11.63;8.48;;;;;;;21.71;76.31;96444.50;5013074;28;20049;-69
2023/08/16 05:38:32;;;;;;;12.55;9.07;;;;;;;21.79;76.36;96443.88;5012948;28;20100;-69
2023/08/16 05:41:02;;;;;;;11.05;8.93;;;;;;;21.87;76.24;96443.22;5012970;28;20049;-69
2023/08/16 05:43:30;;;;;;;11.25;8.55;;;;;;;21.95;75.61;96440.75;5012924;28;20049;-69
2023/08/16 05:45:59;;;;;;;13.48;8.43;;;;;;;22.08;76.09;96445.00;5012889;28;20050;-69
2023/08/16 05:48:26;;;;;;;11.90;8.50;;;;;;;22.13;75.33;96445.47;5013024;28;20077;-69
2023/08/16 05:50:53;;;;;;;9.63;8.15;;;;;;;22.24;74.86;96443.69;5012877;28;20488;-69
2023/08/16 05:53:20;;;;;;;12.02;8.93;;;;;;;22.31;74.17;96445.66;5012879;28;20546;-69
2023/08/16 05:55:46;;;;;;;12.88;8.25;;;;;;;22.39;73.15;96445.00;5012856;28;20119;-69
2023/08/16 05:58:14;;;;;;;12.85;8.82;;;;;;;22.44;71.64;96448.13;5012819;28;20073;-69
2023/08/16 06:00:41;;;;;;;13.10;8.98;;;;;;;22.55;72.35;96443.66;5014418;28;20084;-69
2023/08/16 06:03:10;;;;;;;12.60;8.57;;;;;;;22.66;71.83;96456.88;5016503;28;20107;-69
2023/08/16 06:05:37;;;;;;;11.95;8.00;;;;;;;22.70;71.81;96446.81;5016508;28;20049;-69
2023/08/16 06:08:05;;;;;;;12.95;7.75;;;;;;;22.74;70.62;96458.88;5016304;28;20054;-69
2023/08/16 06:10:32;;;;;;;10.18;7.95;;;;;;;22.76;68.75;96456.94;5016308;28;20411;-69
2023/08/16 06:13:00;;;;;;;14.80;9.10;;;;;;;22.86;68.37;96454.28;5016405;28;20060;-69
2023/08/16 06:15:27;;;;;;;10.98;7.85;;;;;;;22.96;70.65;96460.47;5016299;28;20050;-69
2023/08/16 06:17:54;;;;;;;8.98;7.63;;;;;;;23.03;69.03;96455.41;5016184;28;20510;-69
2023/08/16 06:20:23;;;;;;;11.73;8.18;;;;;;;23.09;68.33;96462.84;5016042;28;20053;-69
2023/08/16 06:22:50;;;;;;;10.13;7.80;;;;;;;23.15;68.97;96461.44;5016192;28;20046;-69
2023/08/16 06:25:17;;;;;;;10.77;7.43;;;;;;;23.18;65.17;96461.16;5015775;28;20484;-69
2023/08/16 06:27:44;;;;;;;13.00;7.88;;;;;;;23.26;64.93;96462.31;5016033;28;20143;-69
2023/08/16 06:30:13;;;;;;;9.15;7.65;;;;;;;23.32;65.64;96467.91;5016064;28;20048;-69
2023/08/16 06:32:40;;;;;;;11.68;7.53;;;;;;;23.38;63.69;96471.06;5015873;28;20041;-69
2023/08/16 06:35:09;;;;;;;11.48;6.75;;;;;;;23.42;63.19;96470.59;5015823;28;20046;-69
2023/08/16 06:37:40;;;;;;;13.80;7.13;;;;;;;23.54;64.81;96471.31;5015873;28;20061;-69
2023/08/16 06:40:09;;;;;;;10.63;6.53;;;;;;;23.56;62.90;96471.16;5015679;28;20065;-69
2023/08/16 06:42:37;;;;;;;12.52;7.35;;;;;;;23.64;62.50;96475.78;5015732;28;20042;-69
2023/08/16 06:45:04;;;;;;;10.13;6.65;;;;;;;23.77;62.16;96481.69;5015653;28;20447;-69
2023/08/16 06:47:32;;;;;;;13.40;6.78;;;;;;;23.92;60.60;96482.06;5015608;28;20042;-69
2023/08/16 06:49:59;;;;;;;11.02;6.68;;;;;;;24.16;60.48;96472.75;5015484;28;20499;-68
2023/08/16 06:52:26;;;;;;;8.65;6.78;;;;;;;24.55;60.88;96471.75;5015527;28;20129;-69
2023/08/16 06:54:55;;;;;;;8.60;6.63;;;;;;;25.06;57.12;96465.16;5015496;28;20050;-68
2023/08/16 06:57:23;;;;;;;12.10;6.03;;;;;;;25.44;56.29;96467.69;5015372;28;20137;-69
2023/08/16 06:59:51;;;;;;;10.50;6.57;;;;;;;25.76;54.18;96465.47;5015280;28;20054;-69
2023/08/16 07:02:20;;;;;;;7.13;5.85;;;;;;;26.19;54.57;96461.03;5015326;28;20403;-69
2023/08/16 07:04:49;;;;;;;7.85;6.28;;;;;;;26.36;52.04;96470.03;5015432;28;20060;-69
2023/08/16 07:07:18;;;;;;;10.00;5.82;;;;;;;26.49;52.03;96471.44;5015376;28;20054;-69
2023/08/16 07:09:45;;;;;;;11.23;5.97;;;;;;;26.55;52.11;96469.97;5015361;28;20042;-68
2023/08/16 07:12:15;;;;;;;12.50;6.28;;;;;;;26.69;51.45;96468.47;5014156;28;20049;-69
2023/08/16 07:14:42;;;;;;;8.18;5.88;;;;;;;27.06;51.57;96463.78;5015138;28;20109;-69
2023/08/16 07:17:09;;;;;;;12.82;5.63;;;;;;;27.57;49.82;96468.19;5015291;28;20168;-69
2023/08/16 07:19:37;;;;;;;11.27;5.53;;;;;;;27.71;48.95;96469.38;5014897;28;20057;-69
2023/08/16 07:22:05;;;;;;;7.90;6.07;;;;;;;27.64;49.09;96461.13;5014962;28;20484;-69
2023/08/16 07:24:32;;;;;;;10.07;5.28;;;;;;;27.39;49.83;96458.44;5015028;28;20092;-69
2023/08/16 07:26:59;;;;;;;11.27;6.25;;;;;;;27.18;49.72;96457.06;5014776;28;20053;-68
2023/08/16 07:29:29;;;;;;;13.80;6.53;;;;;;;26.97;50.43;96454.84;5014760;28;20088;-69
2023/08/16 07:31:57;;;;;;;14.38;6.60;;;;;;;26.81;51.28;96455.63;5014750;28;20046;-68
2023/08/16 07:34:24;;;;;;;11.05;5.85;;;;;;;26.93;52.14;96450.78;5014897;28;20127;-69
2023/08/16 07:36:51;;;;;;;13.35;6.53;;;;;;;27.09;51.08;96466.13;5014632;28;20060;-69
2023/08/16 07:39:18;;;;;;;7.78;5.38;;;;;;;27.07;51.23;96460.06;5014646;28;20054;-69
2023/08/16 07:41:47;;;;;;;14.35;6.85;;;;;;;26.96;51.78;96453.13;5014646;28;20046;-69
2023/08/16 07:44:15;;;;;;;13.45;6.20;;;;;;;27.30;50.62;96446.84;5014616;28;20050;-68
2023/08/16 07:46:43;;;;;;;12.18;5.88;;;;;;;27.44;50.46;96452.56;5014594;28;20057;-68
2023/08/16 07:49:11;;;;;;;10.35;5.90;;;;;;;27.30;50.79;96454.06;5014573;28;20046;-68
2023/08/16 07:51:38;;;;;;;15.40;6.45;;;;;;;27.11;52.34;96461.41;5014470;28;20050;-68
2023/08/16 07:54:06;;;;;;;14.95;6.38;;;;;;;27.09;50.28;96458.91;5014560;28;20081;-68
2023/08/16 07:56:33;;;;;;;13.73;6.38;;;;;;;27.30;51.22;96468.31;5014297;28;20057;-69
2023/08/16 07:59:00;;;;;;;10.73;6.45;;;;;;;27.47;50.49;96465.66;5014200;28;20525;-69
2023/08/16 08:01:28;;;;;;;12.85;5.80;;;;;;;27.21;50.98;96466.66;5014104;28;20050;-69
2023/08/16 08:03:57;;;;;;;10.00;6.38;;;;;;;27.29;51.95;96472.03;5014334;28;20470;-69
2023/08/16 08:06:24;;;;;;;16.33;6.45;;;;;;;27.25;51.61;96465.31;5014272;28;20488;-69
2023/08/16 08:08:52;;;;;;;12.85;6.10;;;;;;;27.35;51.17;96470.50;5014175;28;20053;-69
2023/08/16 08:11:19;;;;;;;10.95;6.47;;;;;;;27.53;51.11;96472.19;5014150;28;20049;-68
2023/08/16 08:13:46;;;;;;;9.63;6.63;;;;;;;27.18;50.73;96483.09;5014099;28;20042;-69
2023/08/16 08:16:14;;;;;;;12.27;6.25;;;;;;;26.95;52.04;96478.28;5013289;28;20133;-69
2023/08/16 08:18:41;;;;;;;10.60;6.43;;;;;;;26.99;52.14;96472.47;5014468;28;20140;-69
2023/08/16 08:21:12;;;;;;;10.82;6.32;;;;;;;27.08;51.63;96477.84;5014260;28;20053;-69
2023/08/16 08:23:39;;;;;;;9.73;6.00;;;;;;;27.05;52.18;96475.50;5013924;28;20081;-69
2023/08/16 08:26:07;;;;;;;8.90;6.60;;;;;;;27.12;53.12;96479.22;5013721;28;20511;-69
2023/08/16 08:28:34;;;;;;;12.40;6.68;;;;;;;27.44;51.87;96468.66;5014139;28;20104;-69
2023/08/16 08:31:03;;;;;;;9.27;6.00;;;;;;;27.71;50.27;96482.81;5014144;28;20086;-69
2023/08/16 08:33:30;;;;;;;8.77;6.10;;;;;;;27.78;50.72;96475.75;5013865;28;20088;-69
2023/08/16 08:35:58;;;;;;;12.45;6.45;;;;;;;28.21;50.11;96478.22;5013934;28;20045;-69
2023/08/16 08:38:27;;;;;;;14.02;6.70;;;;;;;28.24;49.18;96464.41;5013874;28;20412;-69
2023/08/16 08:40:58;;;;;;;12.50;6.45;;;;;;;28.72;48.79;96473.53;5013659;28;20053;-69
2023/08/16 08:43:29;;;;;;;14.90;6.28;;;;;;;28.72;48.86;96474.34;5013663;28;20046;-69
2023/08/16 08:45:58;;;;;;;9.13;6.22;;;;;;;28.56;48.67;96480.63;5013620;28;20078;-69
2023/08/16 08:48:26;;;;;;;11.55;5.90;;;;;;;28.38;49.13;96464.72;5013626;28;20049;-69
2023/08/16 08:50:54;;;;;;;11.77;6.45;;;;;;;28.13;49.35;96473.69;5013479;28;20046;-69
2023/08/16 08:53:22;;;;;;;10.93;5.88;;;;;;;27.85;50.02;96465.19;5013453;28;20054;-68
2023/08/16 08:55:52;;;;;;;14.65;6.68;;;;;;;27.87;50.05;96465.81;5013657;28;20045;-69
2023/08/16 08:58:20;;;;;;;12.38;6.38;;;;;;;27.79;50.39;96458.63;5013461;28;20100;-69
2023/08/16 09:00:48;;;;;;;8.68;6.15;;;;;;;27.91;50.34;96463.66;5013530;28;20050;-68
2023/08/16 09:03:18;;;;;;;12.63;6.13;;;;;;;28.36;51.44;96456.03;5013337;28;20049;-69
2023/08/16 09:05:46;;;;;;;13.85;6.57;;;;;;;28.49;47.98;96450.09;5013450;28;20073;-69
2023/08/16 09:08:16;;;;;;;15.38;6.82;;;;;;;28.40;49.38;96453.81;5013335;28;20052;-69
2023/08/16 09:10:43;;;;;;;13.10;6.73;;;;;;;28.28;49.57;96456.00;5013341;28;20096;-68
2023/08/16 09:13:13;;;;;;;7.28;5.78;;;;;;;28.16;49.89;96459.06;5013245;28;20100;-69
2023/08/16 09:15:41;;;;;;;11.05;6.18;;;;;;;28.16;50.42;96447.47;5013277;28;20220;-69
2023/08/16 09:18:10;;;;;;;11.07;6.20;;;;;;;28.46;49.34;96453.13;5013217;28;20057;-69
2023/08/16 09:20:38;;;;;;;10.43;6.72;;;;;;;28.55;49.67;96456.59;5013290;28;20443;-69
2023/08/16 09:23:06;;;;;;;13.25;6.20;;;;;;;28.97;48.94;96455.44;5013033;28;20100;-68
2023/08/16 09:25:34;;;;;;;11.88;6.22;;;;;;;28.96;48.50;96459.13;5013004;28;20061;-68
2023/08/16 09:28:01;;;;;;;11.75;6.47;;;;;;;28.76;48.56;96461.41;5013229;28;20053;-68
2023/08/16 09:30:31;;;;;;;10.93;6.18;;;;;;;28.42;49.12;96462.56;5013076;28;20061;-68
2023/08/16 09:32:58;;;;;;;11.23;6.15;;;;;;;28.29;49.66;96455.00;5013071;28;20056;-69
2023/08/16 09:35:30;;;;;;;14.18;6.85;;;;;;;28.24;50.13;96452.84;5014301;28;20045;-68
2023/08/16 09:37:58;;;;;;;11.70;6.35;;;;;;;28.32;50.18;96452.81;5017004;28;20137;-68
2023/08/16 09:40:25;;;;;;;12.48;5.97;;;;;;;28.50;49.49;96452.59;5016773;28;20072;-68
2023/08/16 09:42:54;;;;;;;11.18;5.72;;;;;;;28.62;49.14;96441.44;5016825;28;20057;-68
2023/08/16 09:45:32;;;;;;;8.38;5.65;;;;;;;28.94;48.80;96439.63;5016930;28;20054;-68
2023/08/16 09:48:01;;;;;;;12.23;6.38;;;;;;;29.09;48.74;96445.09;5016802;28;20056;-69
2023/08/16 09:50:29;;;;;;;10.27;6.00;;;;;;;29.04;48.15;96435.88;5016693;28;20056;-69
2023/08/16 09:52:59;;;;;;;10.90;5.88;;;;;;;28.96;48.30;96453.72;5016645;28;20100;-69
2023/08/16 09:55:31;;;;;;;11.60;5.93;;;;;;;28.89;47.88;96447.34;5016688;28;20048;-68
2023/08/16 09:57:58;;;;;;;16.02;5.97;;;;;;;29.27;48.87;96449.34;5016597;28;20559;-69
2023/08/16 10:00:27;;;;;;;18.05;6.38;;;;;;;29.52;48.01;96455.38;5016491;28;20056;-69
2023/08/16 10:02:57;;;;;;;10.13;6.03;;;;;;;30.02;47.05;96437.94;5016496;28;20046;-69
2023/08/16 10:05:26;;;;;;;11.15;6.10;;;;;;;30.33;45.71;96439.66;5016431;28;20052;-69
2023/08/16 10:07:56;;;;;;;11.82;5.60;;;;;;;30.33;45.46;96441.50;5016391;28;20487;-69
2023/08/16 10:10:23;;;;;;;12.93;5.60;;;;;;;30.10;45.06;96451.31;5016398;28;20046;-69
2023/08/16 10:12:51;;;;;;;6.70;4.75;;;;;;;29.76;44.70;96467.00;5016178;28;20554;-69
2023/08/16 10:15:18;;;;;;;11.07;5.75;;;;;;;29.47;45.83;96459.63;5016225;28;20101;-69
2023/08/16 10:17:49;;;;;;;10.63;5.18;;;;;;;29.52;45.55;96487.69;5016183;28;20050;-69
2023/08/16 10:20:24;;;;;;;9.13;4.82;;;;;;;29.49;45.16;96454.88;5016097;28;20045;-69
2023/08/16 10:22:58;;;;;;;13.93;5.28;;;;;;;29.41;45.45;96463.06;5016146;28;20092;-69
2023/08/16 10:25:26;;;;;;;8.70;5.38;;;;;;;29.32;46.94;96448.81;5015849;28;20050;-69
2023/08/16 10:27:56;;;;;;;17.27;5.65;;;;;;;29.38;46.44;96461.56;5016063;28;20092;-69
2023/08/16 10:30:24;;;;;;;;;;;;;;;29.24;46.89;96447.00;5016484;28;20054;-69
2023/08/16 10:32:57;;;;;;;9.57;5.00;;;;;;;29.29;47.86;96449.16;5016039;28;20407;-68
2023/08/16 10:35:27;;;;;;;10.48;5.07;;;;;;;29.52;45.96;96441.91;5015972;28;20042;-69
2023/08/16 10:37:56;;;;;;;12.23;5.27;;;;;;;29.39;46.66;96439.00;5015916;28;20057;-68
2023/08/16 10:40:25;;;;;;;14.10;5.63;;;;;;;29.38;46.49;96443.53;5015779;28;20050;-68
2023/08/16 10:42:56;;;;;;;8.00;5.20;;;;;;;29.13;47.42;96449.09;5015870;28;20484;-68
2023/08/16 10:45:25;;;;;;;8.77;5.22;;;;;;;29.07;47.21;96439.03;5015603;28;20054;-68
2023/08/16 10:47:53;;;;;;;14.25;6.13;;;;;;;29.14;48.00;96439.19;5015439;28;20057;-68
2023/08/16 10:50:21;;;;;;;10.27;5.95;;;;;;;29.45;46.98;96432.03;5015656;28;20415;-68
2023/08/16 10:52:51;;;;;;;9.80;5.25;;;;;;;29.51;46.88;96440.25;5015562;28;20050;-68
2023/08/16 10:55:25;;;;;;;14.33;5.93;;;;;;;29.64;45.74;96434.25;5015616;28;20042;-68
2023/08/16 10:57:53;;;;;;;12.57;4.82;;;;;;;29.62;46.16;96430.09;5015447;28;20370;-68
2023/08/16 11:00:21;;;;;;;9.25;5.10;;;;;;;29.61;46.20;96431.09;5015409;28;20411;-69
2023/08/16 11:02:55;;;;;;;13.38;5.40;;;;;;;29.49;46.48;96427.97;5015428;28;20046;-68
2023/08/16 11:05:24;;;;;;;10.38;5.53;;;;;;;29.51;46.11;96421.38;5015284;28;20056;-68
2023/08/16 11:07:54;;;;;;;7.43;5.13;;;;;;;29.60;46.06;96418.63;5014999;28;20452;-69
2023/08/16 11:10:21;;;;;;;;;;;;;;;29.66;46.83;96412.53;5015673;28;20060;-68
2023/08/16 11:12:49;;;;;;;14.05;5.30;;;;;;;29.89;46.22;96398.97;5015203;28;19928;-68
2023/08/16 11:15:19;;;;;;;9.13;5.15;;;;;;;30.01;46.83;96410.16;5015213;28;20073;-69
2023/08/16 11:17:47;;;;;;;13.07;5.43;;;;;;;29.97;46.24;96394.53;5015236;28;20050;-68
2023/08/16 11:20:15;;;;;;;16.33;5.68;;;;;;;30.09;45.33;96384.13;5015152;28;20046;-68
2023/08/16 11:22:43;;;;;;;9.27;5.13;;;;;;;30.01;46.05;96385.88;5015311;28;20068;-68
2023/08/16 11:25:13;;;;;;;12.93;5.97;;;;;;;29.86;45.29;96395.84;5014874;28;20057;-68
2023/08/16 11:27:41;;;;;;;9.27;5.32;;;;;;;29.71;44.41;96401.22;5034685;28;20140;-68
2023/08/16 11:30:09;;;;;;;13.00;5.40;;;;;;;29.62;44.73;96387.78;5034673;28;20050;-68